Terminal Aerodrome Forecast
Issued by NWS

Home | Current Version | Previous Version | Text Only | Print | Product List | Glossary On
Versions: 1 2 3 4 5 6 7 8 9 10 11 12 13 14 15 16 17 18 19 20 21 22 23 24 25 26 27 28 29 30 31 32 33 34 35 36 37 38 39 40 41 42 43 44 45 46 47 48 49 50
000
FTUS45 KBOU 031439 AAB
TAFAPA
TAF AMD
KAPA 031439Z 0315/0412 01015G25KT P6SM VCSH OVC008
     FM031510 04014KT P6SM VCSH OVC010
      TEMPO 0318/0322 2SM -SN OVC008
     FM032200 07014KT 2SM -SN BR BKN008 OVC014
     FM040000 04012KT 1SM -SN BR BKN005 OVC010
      TEMPO 0404/0408 1/2SM SN FZFG OVC003=

USA.gov is the U.S. government's official web portal to all federal, state and local government web resources and services.